createdAt,value
2023-01-04T00:04:48.613Z,10.35
2023-01-04T00:09:52.448Z,10.63
2023-01-04T00:14:54.010Z,10.45
2023-01-04T00:19:55.681Z,11.85
2023-01-04T00:24:57.821Z,11.50
2023-01-04T00:30:01.431Z,12.48
2023-01-04T00:35:05.140Z,12.75
2023-01-04T00:40:09.530Z,11.65
2023-01-04T00:45:11.115Z,10.30
2023-01-04T00:50:16.532Z,9.63
2023-01-04T00:55:18.085Z,8.02
2023-01-04T01:00:23.642Z,9.35
2023-01-04T01:05:28.747Z,10.10
2023-01-04T01:10:30.352Z,8.93
2023-01-04T01:15:34.492Z,9.35
2023-01-04T01:20:41.386Z,8.98
2023-01-04T01:25:47.535Z,8.70
2023-01-04T01:30:56.647Z,8.95
2023-01-04T01:36:05.617Z,8.65
2023-01-04T01:41:10.421Z,7.80
2023-01-04T01:46:17.206Z,8.60
2023-01-04T01:51:19.542Z,8.55
2023-01-04T01:56:23.642Z,8.05
2023-01-04T02:01:26.145Z,7.95
2023-01-04T02:06:35.881Z,8.35
2023-01-04T02:11:37.391Z,8.23
2023-01-04T02:17:01.782Z,7.45
2023-01-04T02:22:42.913Z,7.22
2023-01-04T02:27:55.516Z,7.60
2023-01-04T02:33:10.729Z,7.00
2023-01-04T02:38:22.305Z,5.82
2023-01-04T02:43:54.177Z,5.80
2023-01-04T02:49:23.086Z,7.45
2023-01-04T02:54:30.810Z,6.70
2023-01-04T02:59:44.632Z,7.28
2023-01-04T03:05:13.236Z,6.72
2023-01-04T03:10:21.269Z,7.63
2023-01-04T03:15:28.139Z,8.95
2023-01-04T03:20:33.103Z,7.35
2023-01-04T03:26:03.804Z,7.43
2023-01-04T03:31:50.444Z,7.60
2023-01-04T03:37:07.586Z,7.32
2023-01-04T03:42:39.416Z,6.78
2023-01-04T03:48:02.080Z,6.80
2023-01-04T03:53:07.478Z,6.13
2023-01-04T03:58:09.286Z,5.22
2023-01-04T04:03:10.848Z,5.57
2023-01-04T04:08:30.616Z,6.45
2023-01-04T04:13:34.845Z,6.15
2023-01-04T04:18:36.430Z,6.68
2023-01-04T04:23:37.959Z,7.13
2023-01-04T04:28:42.560Z,7.00
2023-01-04T04:33:46.175Z,6.07
2023-01-04T04:38:47.732Z,6.75
2023-01-04T04:43:54.080Z,6.78
2023-01-04T04:48:56.226Z,6.82
2023-01-04T04:53:57.780Z,7.38
2023-01-04T04:59:01.601Z,7.30
2023-01-04T05:04:09.805Z,8.55
2023-01-04T05:09:14.766Z,9.95
2023-01-04T05:14:16.331Z,9.13
2023-01-04T05:19:22.424Z,10.57
2023-01-04T05:24:26.246Z,9.05
2023-01-04T05:29:50.865Z,9.93
2023-01-04T05:34:52.357Z,9.20
2023-01-04T05:39:56.231Z,10.18
2023-01-04T05:44:59.502Z,9.18
2023-01-04T05:50:01.062Z,10.23
2023-01-04T05:55:03.400Z,10.15
2023-01-04T06:00:07.093Z,10.90
2023-01-04T06:05:16.430Z,10.10
2023-01-04T06:10:23.016Z,10.32
2023-01-04T06:15:24.573Z,10.00
2023-01-04T06:20:35.993Z,12.50
2023-01-04T06:25:38.612Z,10.68
2023-01-04T06:30:45.696Z,9.52
2023-01-04T06:35:57.536Z,10.48
2023-01-04T06:40:59.518Z,10.43
2023-01-04T06:46:01.522Z,9.75
2023-01-04T06:51:04.397Z,10.00
2023-01-04T06:56:08.060Z,10.93
2023-01-04T07:01:09.835Z,9.70
2023-01-04T07:06:13.964Z,10.10
2023-01-04T07:11:19.013Z,9.85
2023-01-04T07:16:24.515Z,9.10
2023-01-04T07:21:30.917Z,9.75
2023-01-04T07:26:35.460Z,9.70
2023-01-04T07:31:37.015Z,10.23
2023-01-04T07:36:46.345Z,11.02
2023-01-04T07:41:49.001Z,10.80
2023-01-04T07:52:01.250Z,10.93
2023-01-04T07:57:02.760Z,11.98
2023-01-04T08:02:10.272Z,10.85
2023-01-04T08:07:14.322Z,10.93
2023-01-04T08:12:19.462Z,12.75
2023-01-04T08:17:20.974Z,11.25
2023-01-04T08:22:24.563Z,11.30
2023-01-04T08:27:26.204Z,11.90
2023-01-04T08:32:29.860Z,10.93
2023-01-04T08:37:31.986Z,13.57
2023-01-04T08:42:33.502Z,12.57
2023-01-04T08:47:34.981Z,12.77
2023-01-04T08:52:36.452Z,14.18
2023-01-04T08:57:38.158Z,12.35
2023-01-04T09:02:39.841Z,12.85
2023-01-04T09:07:43.938Z,12.18
2023-01-04T09:12:47.829Z,12.38
2023-01-04T09:18:29.572Z,11.23
2023-01-04T09:23:16.313Z,11.30
2023-01-04T09:28:18.485Z,11.45
2023-01-04T09:33:35.836Z,11.43
2023-01-04T09:38:48.981Z,11.50
2023-01-04T09:43:52.589Z,11.68
2023-01-04T09:49:15.210Z,11.55
2023-01-04T09:54:23.182Z,11.32
2023-01-04T09:59:34.661Z,12.30
2023-01-04T10:04:51.506Z,11.85
2023-01-04T10:10:00.533Z,10.23
2023-01-04T10:15:26.836Z,10.32
2023-01-04T10:21:21.764Z,10.05
2023-01-04T10:26:17.836Z,10.18
2023-01-04T10:31:40.191Z,9.05
2023-01-04T10:36:47.463Z,10.18
2023-01-04T10:42:16.056Z,9.98
2023-01-04T10:47:29.747Z,10.50
2023-01-04T10:52:50.766Z,9.82
2023-01-04T10:58:04.853Z,9.38
2023-01-04T11:03:18.865Z,9.60
2023-01-04T11:08:28.639Z,9.35
2023-01-04T11:13:31.183Z,8.80
2023-01-04T11:18:40.141Z,7.80
2023-01-04T11:23:41.639Z,8.40
2023-01-04T11:29:03.040Z,8.45
2023-01-04T11:34:04.646Z,7.78
2023-01-04T11:39:23.309Z,8.13
2023-01-04T11:44:27.471Z,7.68
2023-01-04T11:49:35.495Z,7.68
2023-01-04T11:54:38.825Z,8.20
2023-01-04T11:59:43.137Z,8.18
2023-01-04T12:04:44.669Z,8.68
2023-01-04T12:09:50.392Z,7.47
2023-01-04T12:14:52.277Z,6.03
2023-01-04T12:19:59.158Z,6.28
2023-01-04T12:25:06.172Z,5.97
2023-01-04T12:30:08.681Z,4.95
2023-01-04T12:36:07.510Z,4.57
2023-01-04T12:41:09.056Z,7.38
2023-01-04T12:46:59.108Z,10.10
2023-01-04T12:52:30.629Z,4.93
2023-01-04T12:57:37.880Z,3.63
2023-01-04T13:02:53.283Z,4.22
2023-01-04T13:07:59.911Z,4.80
2023-01-04T13:13:35.770Z,3.00
2023-01-04T13:18:43.304Z,3.17
2023-01-04T13:24:03.355Z,3.80
2023-01-04T13:29:13.164Z,2.97
2023-01-04T13:34:59.973Z,3.13
2023-01-04T13:40:26.714Z,2.90
2023-01-04T13:45:43.076Z,2.78
2023-01-04T13:51:06.806Z,2.33
2023-01-04T13:56:20.699Z,2.45
2023-01-04T14:01:34.277Z,2.30
2023-01-04T14:06:45.458Z,2.78
2023-01-04T14:12:07.374Z,2.15
2023-01-04T14:17:12.694Z,2.40
2023-01-04T14:22:23.506Z,2.30
2023-01-04T14:27:40.343Z,2.20
2023-01-04T14:32:53.684Z,2.25
2023-01-04T14:38:02.195Z,2.20
2023-01-04T14:43:35.195Z,1.67
2023-01-04T14:48:36.897Z,2.45
2023-01-04T14:53:38.757Z,2.60
2023-01-04T14:58:40.737Z,2.20
2023-01-04T15:03:42.528Z,2.50
2023-01-04T15:08:44.332Z,2.40
2023-01-04T15:13:46.034Z,2.97
2023-01-04T15:18:49.416Z,2.42
2023-01-04T15:23:51.144Z,3.00
2023-01-04T15:28:53.235Z,3.60
2023-01-04T15:33:55.251Z,2.60
2023-01-04T15:38:57.192Z,2.25
2023-01-04T15:43:59.733Z,2.53
2023-01-04T15:49:02.586Z,2.40
2023-01-04T15:54:04.692Z,2.50
2023-01-04T15:59:06.693Z,2.30
2023-01-04T16:04:09.370Z,1.95
2023-01-04T16:09:11.487Z,2.53
2023-01-04T16:14:13.261Z,2.78
2023-01-04T16:19:15.268Z,2.47
2023-01-04T16:24:44.779Z,2.30
2023-01-04T16:29:38.554Z,2.33
2023-01-04T16:34:40.241Z,2.65
2023-01-04T16:40:06.318Z,3.60
2023-01-04T16:45:04.156Z,3.33
2023-01-04T16:50:07.266Z,2.47
2023-01-04T16:55:09.442Z,5.07
2023-01-04T17:00:12.034Z,4.35
2023-01-04T17:05:13.986Z,2.40
2023-01-04T17:10:15.786Z,2.33
2023-01-04T17:20:42.204Z,3.67
2023-01-04T17:25:43.873Z,3.30
2023-01-04T17:30:45.639Z,2.30
2023-01-04T17:35:47.386Z,2.70
2023-01-04T17:40:49.135Z,3.88
2023-01-04T17:45:50.979Z,3.05
2023-01-04T17:50:52.802Z,3.35
2023-01-04T18:00:56.596Z,2.60
2023-01-04T18:06:24.397Z,1.98
2023-01-04T18:11:20.775Z,2.50
2023-01-04T18:16:28.289Z,2.45
2023-01-04T18:21:31.508Z,2.60
2023-01-04T18:26:53.435Z,2.58
2023-01-04T18:31:55.889Z,2.17
2023-01-04T18:37:04.812Z,2.15
2023-01-04T18:42:14.103Z,1.92
2023-01-04T18:47:21.750Z,2.03
2023-01-04T18:52:23.513Z,1.80
2023-01-04T18:57:26.551Z,1.88
2023-01-04T19:02:28.669Z,1.77
2023-01-04T19:07:30.877Z,1.60
2023-01-04T19:12:32.800Z,1.63
2023-01-04T19:17:35.753Z,1.83
2023-01-04T19:22:37.933Z,5.65
2023-01-04T19:27:39.840Z,2.78
2023-01-04T19:32:42.824Z,3.22
2023-01-04T19:37:44.938Z,4.30
2023-01-04T19:42:47.325Z,2.03
2023-01-04T19:47:51.247Z,2.78
2023-01-04T19:52:53.129Z,1.60
2023-01-04T19:57:55.229Z,1.58
2023-01-04T20:02:57.443Z,1.70
2023-01-04T20:07:59.492Z,1.38
2023-01-04T20:13:01.444Z,1.17
2023-01-04T20:18:05.987Z,1.10
2023-01-04T20:23:13.660Z,1.60
2023-01-04T20:28:17.203Z,1.13
2023-01-04T20:33:18.965Z,1.40
2023-01-04T20:38:20.901Z,1.27
2023-01-04T20:43:36.418Z,1.02
2023-01-04T20:48:39.865Z,1.00
2023-01-04T20:53:43.637Z,0.95
2023-01-04T20:58:47.552Z,0.85
2023-01-04T21:03:49.739Z,0.80
2023-01-04T21:08:55.260Z,0.82
2023-01-04T21:13:59.507Z,0.50
2023-01-04T21:19:01.340Z,0.90
2023-01-04T21:24:03.355Z,0.70
2023-01-04T21:29:05.224Z,0.75
2023-01-04T21:34:13.033Z,0.75
2023-01-04T21:39:16.992Z,0.70
2023-01-04T21:44:19.170Z,0.80
2023-01-04T21:49:22.981Z,0.75
2023-01-04T21:54:24.999Z,0.95
2023-01-04T21:59:26.947Z,0.90
2023-01-04T22:04:29.458Z,0.55
2023-01-04T22:09:31.280Z,0.50
2023-01-04T22:14:34.029Z,0.57
2023-01-04T22:19:35.927Z,0.52
2023-01-04T22:24:38.458Z,0.70
2023-01-04T22:29:40.758Z,0.65
2023-01-04T22:34:42.944Z,0.75
2023-01-04T22:39:44.742Z,0.60
2023-01-04T22:44:46.749Z,0.82
2023-01-04T22:49:49.609Z,1.10
2023-01-04T22:54:51.554Z,0.88
2023-01-04T22:59:54.603Z,0.95
2023-01-04T23:04:58.809Z,0.80
2023-01-04T23:10:00.798Z,0.80
2023-01-04T23:15:04.384Z,0.75
2023-01-04T23:20:10.398Z,0.90
2023-01-04T23:25:12.636Z,0.93
2023-01-04T23:30:16.254Z,0.80
2023-01-04T23:35:18.606Z,0.80
2023-01-04T23:40:21.358Z,0.70
2023-01-04T23:45:24.072Z,1.50
2023-01-04T23:50:26.146Z,0.50
2023-01-04T23:55:29.263Z,0.70
